Terminal Aerodrome Forecast
Issued by NWS

Home | Current Version | Previous Version | Text Only | Print | Product List | Glossary On
Versions: 1 2 3 4 5 6 7 8 9 10 11 12 13 14 15 16 17 18 19 20 21 22 23 24
090
FTUS43 KBIS 231132
TAFMOT
TAF
KMOT 231132Z 2312/2412 29010KT P6SM VCSH FEW002 BKN140
     FM231600 30016G24KT P6SM SCT180
     FM231900 28015G23KT P6SM SCT120
     FM240200 26010KT P6SM SCT050=

USA.gov is the U.S. government's official web portal to all federal, state and local government web resources and services.